createdAt,value
2023-05-10T00:00:44.260Z,14.20
2023-05-10T00:03:11.432Z,14.10
2023-05-10T00:05:38.574Z,14.10
2023-05-10T00:08:05.937Z,14.00
2023-05-10T00:10:32.944Z,14.00
2023-05-10T00:13:00.185Z,14.00
2023-05-10T00:15:27.471Z,13.90
2023-05-10T00:17:54.731Z,13.80
2023-05-10T00:20:21.853Z,13.80
2023-05-10T00:22:48.983Z,13.80
2023-05-10T00:25:16.027Z,13.80
2023-05-10T00:27:43.050Z,13.80
2023-05-10T00:30:10.245Z,13.90
2023-05-10T00:32:37.370Z,14.00
2023-05-10T00:35:04.731Z,14.00
2023-05-10T00:37:31.630Z,14.10
2023-05-10T00:39:58.603Z,14.10
2023-05-10T00:42:25.704Z,14.10
2023-05-10T00:44:52.816Z,14.00
2023-05-10T00:47:19.895Z,13.90
2023-05-10T00:49:47.274Z,13.90
2023-05-10T00:52:14.702Z,13.80
2023-05-10T00:54:41.806Z,13.80
2023-05-10T00:57:08.842Z,13.70
2023-05-10T00:59:36.176Z,13.80
2023-05-10T01:02:03.376Z,13.70
2023-05-10T01:04:31.657Z,13.70
2023-05-10T01:06:58.800Z,13.80
2023-05-10T01:09:27.391Z,13.70
2023-05-10T01:11:55.261Z,13.70
2023-05-10T01:14:22.709Z,13.80
2023-05-10T01:16:51.075Z,13.70
2023-05-10T01:19:26.966Z,13.70
2023-05-10T01:22:23.235Z,13.70
2023-05-10T01:25:14.546Z,13.70
2023-05-10T01:27:59.779Z,13.60
2023-05-10T01:30:32.842Z,13.60
2023-05-10T01:33:08.349Z,13.50
2023-05-10T01:35:56.776Z,13.50
2023-05-10T01:38:48.265Z,13.50
2023-05-10T01:41:18.205Z,13.40
2023-05-10T01:44:02.218Z,13.40
2023-05-10T01:46:39.555Z,13.40
2023-05-10T01:49:18.508Z,13.40
2023-05-10T01:51:52.988Z,13.50
2023-05-10T01:54:23.189Z,13.50
2023-05-10T01:56:59.751Z,13.60
2023-05-10T01:59:31.725Z,13.60
2023-05-10T02:02:01.023Z,13.60
2023-05-10T02:04:29.647Z,13.50
2023-05-10T02:06:58.388Z,13.50
2023-05-10T02:09:28.995Z,13.40
2023-05-10T02:11:58.304Z,13.40
2023-05-10T02:14:27.413Z,13.30
2023-05-10T02:16:56.614Z,13.30
2023-05-10T02:19:25.330Z,13.20
2023-05-10T02:21:53.077Z,13.20
2023-05-10T02:24:20.948Z,13.20
2023-05-10T02:26:50.999Z,13.20
2023-05-10T02:29:19.764Z,13.20
2023-05-10T02:31:47.538Z,13.20
2023-05-10T02:34:15.390Z,13.10
2023-05-10T02:36:43.462Z,13.10
2023-05-10T02:39:13.775Z,13.10
2023-05-10T02:41:43.187Z,13.00
2023-05-10T02:44:11.959Z,13.00
2023-05-10T02:46:39.210Z,13.10
2023-05-10T02:49:06.728Z,13.00
2023-05-10T02:51:37.189Z,13.00
2023-05-10T02:54:11.414Z,13.00
2023-05-10T02:56:43.728Z,13.00
2023-05-10T02:59:10.857Z,13.00
2023-05-10T03:01:37.991Z,13.00
2023-05-10T03:04:05.607Z,13.00
2023-05-10T03:06:32.837Z,13.00
2023-05-10T03:09:00.481Z,13.00
2023-05-10T03:11:53.851Z,13.00
2023-05-10T03:15:02.970Z,13.00
2023-05-10T03:17:56.445Z,13.10
2023-05-10T03:20:30.775Z,13.00
2023-05-10T03:23:17.429Z,13.00
2023-05-10T03:25:47.423Z,12.90
2023-05-10T03:28:16.674Z,13.00
2023-05-10T03:30:45.175Z,12.90
2023-05-10T03:33:13.753Z,12.90
2023-05-10T03:35:41.144Z,13.00
2023-05-10T03:38:08.131Z,12.90
2023-05-10T03:40:35.212Z,12.90
2023-05-10T03:43:02.209Z,13.00
2023-05-10T03:45:29.411Z,12.90
2023-05-10T03:47:56.559Z,12.90
2023-05-10T03:50:23.698Z,13.00
2023-05-10T03:52:52.980Z,13.00
2023-05-10T03:55:21.306Z,13.00
2023-05-10T03:57:50.572Z,13.00
2023-05-10T04:00:18.471Z,13.00
2023-05-10T04:02:46.456Z,13.00
2023-05-10T04:05:13.636Z,13.00
2023-05-10T04:07:40.868Z,13.00
2023-05-10T04:10:08.691Z,12.90
2023-05-10T04:12:35.809Z,12.90
2023-05-10T04:15:02.915Z,12.90
2023-05-10T04:17:30.280Z,12.90
2023-05-10T04:19:57.515Z,13.00
2023-05-10T04:22:24.957Z,12.90
2023-05-10T04:24:52.185Z,12.70
2023-05-10T04:27:19.389Z,12.80
2023-05-10T04:29:46.373Z,12.80
2023-05-10T04:32:13.570Z,12.80
2023-05-10T04:34:40.761Z,12.90
2023-05-10T04:37:08.850Z,13.00
2023-05-10T04:39:36.495Z,13.00
2023-05-10T04:42:04.437Z,13.10
2023-05-10T04:44:31.822Z,13.10
2023-05-10T04:46:59.086Z,13.10
2023-05-10T04:49:26.100Z,13.10
2023-05-10T04:51:53.190Z,13.20
2023-05-10T04:54:20.364Z,13.10
2023-05-10T04:56:47.431Z,13.10
2023-05-10T04:59:14.500Z,13.00
2023-05-10T05:01:41.663Z,13.00
2023-05-10T05:04:08.918Z,13.00
2023-05-10T05:06:36.369Z,13.00
2023-05-10T05:09:03.578Z,13.10
2023-05-10T05:11:30.864Z,13.00
2023-05-10T05:14:00.147Z,13.10
2023-05-10T05:16:27.510Z,13.10
2023-05-10T05:18:54.688Z,13.10
2023-05-10T05:21:22.420Z,13.20
2023-05-10T05:23:49.631Z,13.20
2023-05-10T05:26:17.085Z,13.30
2023-05-10T05:28:45.321Z,13.40
2023-05-10T05:31:12.485Z,13.50
2023-05-10T05:33:39.605Z,13.40
2023-05-10T05:36:07.347Z,13.50
2023-05-10T05:38:34.514Z,13.40
2023-05-10T05:41:01.875Z,13.50
2023-05-10T05:43:28.992Z,13.40
2023-05-10T05:45:58.948Z,13.40
2023-05-10T05:48:26.483Z,13.30
2023-05-10T05:50:57.649Z,13.30
2023-05-10T05:53:25.437Z,13.30
2023-05-10T05:55:54.942Z,13.30
2023-05-10T05:58:25.355Z,13.40
2023-05-10T06:00:55.762Z,13.30
2023-05-10T06:03:22.891Z,13.30
2023-05-10T06:05:50.237Z,13.30
2023-05-10T06:08:17.485Z,13.40
2023-05-10T06:10:45.465Z,13.40
2023-05-10T06:13:12.626Z,13.50
2023-05-10T06:15:40.063Z,13.50
2023-05-10T06:18:07.235Z,13.50
2023-05-10T06:20:34.437Z,13.40
2023-05-10T06:23:01.471Z,13.50
2023-05-10T06:25:28.585Z,13.50
2023-05-10T06:27:58.526Z,13.50
2023-05-10T06:30:29.516Z,13.60
2023-05-10T06:32:57.743Z,13.60
2023-05-10T06:35:25.224Z,13.70
2023-05-10T06:37:52.699Z,13.70
2023-05-10T06:40:20.378Z,13.80
2023-05-10T06:42:48.248Z,13.80
2023-05-10T06:45:16.503Z,13.90
2023-05-10T06:47:44.105Z,13.90
2023-05-10T06:50:14.825Z,13.90
2023-05-10T06:52:41.843Z,13.90
2023-05-10T06:55:09.824Z,13.90
2023-05-10T06:57:36.928Z,14.00
2023-05-10T07:00:08.157Z,14.10
2023-05-10T07:02:35.361Z,14.20
2023-05-10T07:05:03.699Z,14.30
2023-05-10T07:07:30.854Z,14.40
2023-05-10T07:09:58.710Z,14.50
2023-05-10T07:12:26.038Z,14.50
2023-05-10T07:14:53.357Z,14.50
2023-05-10T07:17:20.565Z,14.40
2023-05-10T07:19:47.734Z,14.30
2023-05-10T07:22:14.912Z,14.20
2023-05-10T07:24:42.081Z,14.20
2023-05-10T07:27:09.222Z,14.20
2023-05-10T07:29:36.979Z,14.10
2023-05-10T07:32:04.386Z,14.10
2023-05-10T07:34:32.683Z,14.10
2023-05-10T07:37:00.054Z,14.20
2023-05-10T07:39:28.348Z,14.20
2023-05-10T07:41:56.478Z,14.30
2023-05-10T07:44:24.178Z,14.40
2023-05-10T07:46:51.684Z,14.40
2023-05-10T07:49:18.780Z,14.40
2023-05-10T07:51:45.906Z,14.40
2023-05-10T07:54:13.787Z,14.60
2023-05-10T07:56:45.766Z,14.50
2023-05-10T07:59:19.017Z,14.60
2023-05-10T08:01:47.404Z,14.60
2023-05-10T08:04:14.980Z,14.70
2023-05-10T08:06:42.419Z,14.70
2023-05-10T08:09:09.888Z,14.70
2023-05-10T08:11:37.281Z,14.70
2023-05-10T08:14:04.539Z,14.80
2023-05-10T08:16:31.651Z,15.00
2023-05-10T08:18:58.953Z,15.10
2023-05-10T08:21:27.151Z,15.20
2023-05-10T08:23:54.226Z,15.20
2023-05-10T08:26:22.491Z,15.20
2023-05-10T08:28:49.559Z,15.20
2023-05-10T08:31:17.090Z,15.30
2023-05-10T08:33:44.801Z,15.30
2023-05-10T08:36:15.501Z,15.40
2023-05-10T08:38:42.453Z,15.50
2023-05-10T08:41:10.206Z,15.60
2023-05-10T08:43:37.601Z,15.70
2023-05-10T08:46:06.619Z,15.60
2023-05-10T08:48:35.822Z,15.60
2023-05-10T08:51:04.805Z,15.80
2023-05-10T08:53:34.193Z,15.90
2023-05-10T08:56:03.399Z,16.10
2023-05-10T08:58:30.657Z,16.30
2023-05-10T09:00:59.020Z,16.40
2023-05-10T09:03:26.385Z,16.50
2023-05-10T09:05:53.488Z,16.60
2023-05-10T09:08:21.554Z,16.60
2023-05-10T09:10:50.024Z,16.50
2023-05-10T09:13:18.157Z,16.60
2023-05-10T09:15:46.630Z,16.60
2023-05-10T09:18:13.940Z,16.50
2023-05-10T09:20:41.549Z,16.50
2023-05-10T09:23:08.856Z,16.50
2023-05-10T09:25:36.106Z,16.40
2023-05-10T09:28:03.539Z,16.50
2023-05-10T09:30:32.033Z,16.70
2023-05-10T09:33:00.755Z,16.80
2023-05-10T09:35:30.569Z,16.90
2023-05-10T09:38:00.691Z,17.00
2023-05-10T09:40:29.860Z,17.30
2023-05-10T09:43:00.236Z,17.40
2023-05-10T09:45:29.095Z,17.50
2023-05-10T09:47:56.892Z,17.70
2023-05-10T09:50:24.629Z,17.90
2023-05-10T09:52:58.774Z,18.00
2023-05-10T09:55:40.177Z,18.10
2023-05-10T09:58:11.844Z,18.20
2023-05-10T10:00:41.297Z,18.30
2023-05-10T10:03:15.291Z,18.20
2023-05-10T10:05:44.344Z,18.20
2023-05-10T10:08:13.091Z,18.00
2023-05-10T10:10:46.186Z,17.60
2023-05-10T10:13:13.780Z,17.10
2023-05-10T10:15:41.087Z,16.40
2023-05-10T10:18:12.567Z,16.00
2023-05-10T10:20:39.586Z,15.80
2023-05-10T10:23:06.617Z,15.80
2023-05-10T10:25:33.794Z,15.90
2023-05-10T10:28:25.019Z,16.00
2023-05-10T10:30:56.437Z,16.10
2023-05-10T10:33:48.357Z,16.10
2023-05-10T10:36:16.580Z,16.20
2023-05-10T10:38:49.778Z,16.30
2023-05-10T10:41:37.482Z,16.30
2023-05-10T10:44:23.402Z,16.30
2023-05-10T10:47:07.014Z,16.20
2023-05-10T10:49:40.741Z,16.50
2023-05-10T10:52:29.448Z,16.90
2023-05-10T10:55:05.063Z,17.10
2023-05-10T10:57:47.264Z,17.40
2023-05-10T11:00:28.513Z,17.60
2023-05-10T11:03:08.575Z,17.90
2023-05-10T11:05:44.627Z,17.90
2023-05-10T11:08:31.882Z,17.90
2023-05-10T11:11:02.483Z,18.10
2023-05-10T11:13:30.789Z,17.90
2023-05-10T11:16:01.175Z,17.60
2023-05-10T11:18:29.873Z,17.50
2023-05-10T11:21:04.327Z,17.40
2023-05-10T11:23:44.646Z,17.20
2023-05-10T11:26:12.659Z,16.90
2023-05-10T11:28:44.312Z,16.60
2023-05-10T11:31:13.445Z,16.50
2023-05-10T11:33:49.457Z,16.40
2023-05-10T11:36:20.387Z,16.40
2023-05-10T11:38:48.164Z,16.30
2023-05-10T11:41:16.323Z,16.30
2023-05-10T11:43:44.001Z,16.30
2023-05-10T11:46:13.074Z,16.20
2023-05-10T11:48:41.013Z,16.00
2023-05-10T11:51:09.348Z,16.00
2023-05-10T11:53:36.747Z,16.10
2023-05-10T11:56:05.669Z,16.00
2023-05-10T11:58:33.434Z,16.00
2023-05-10T12:01:01.465Z,15.90
2023-05-10T12:03:29.701Z,15.80
2023-05-10T12:05:58.264Z,15.80
2023-05-10T12:08:27.694Z,15.80
2023-05-10T12:11:04.701Z,16.00
2023-05-10T12:13:31.682Z,16.10
2023-05-10T12:15:59.608Z,16.30
2023-05-10T12:18:27.064Z,16.40
2023-05-10T12:20:55.398Z,16.60
2023-05-10T12:23:22.328Z,16.80
2023-05-10T12:25:49.405Z,16.90
2023-05-10T12:28:20.052Z,17.00
2023-05-10T12:30:47.056Z,17.00
2023-05-10T12:33:18.067Z,17.10
2023-05-10T12:35:54.208Z,17.30
2023-05-10T12:38:31.657Z,17.30
2023-05-10T12:41:03.861Z,17.20
2023-05-10T12:43:31.461Z,17.10
2023-05-10T12:45:58.602Z,17.00
2023-05-10T12:48:26.028Z,17.00
2023-05-10T12:50:53.200Z,17.10
2023-05-10T12:53:20.189Z,17.20
2023-05-10T12:55:47.162Z,17.30
2023-05-10T12:58:27.489Z,17.40
2023-05-10T13:01:01.459Z,17.50
2023-05-10T13:03:28.508Z,17.40
2023-05-10T13:05:55.565Z,17.30
2023-05-10T13:08:22.482Z,17.50
2023-05-10T13:10:49.962Z,17.80
2023-05-10T13:13:17.116Z,18.00
2023-05-10T13:15:44.182Z,17.90
2023-05-10T13:18:11.513Z,17.70
2023-05-10T13:20:38.735Z,17.70
2023-05-10T13:23:05.765Z,17.90
2023-05-10T13:25:32.892Z,18.20
2023-05-10T13:27:59.892Z,18.20
2023-05-10T13:30:27.250Z,18.30
2023-05-10T13:32:54.316Z,18.30
2023-05-10T13:35:21.733Z,18.20
2023-05-10T13:37:48.783Z,18.20
2023-05-10T13:40:16.774Z,18.50
2023-05-10T13:42:44.252Z,18.40
2023-05-10T13:45:13.234Z,18.60
2023-05-10T13:47:40.538Z,18.50
2023-05-10T13:50:08.184Z,18.50
2023-05-10T13:52:35.427Z,18.20
2023-05-10T13:55:02.592Z,18.30
2023-05-10T13:57:31.342Z,18.40
2023-05-10T13:59:59.514Z,18.40
2023-05-10T14:02:28.639Z,18.30
2023-05-10T14:04:55.917Z,18.10
2023-05-10T14:07:22.965Z,18.20
2023-05-10T14:09:50.287Z,18.30
2023-05-10T14:12:17.346Z,18.50
2023-05-10T14:14:44.404Z,18.70
2023-05-10T14:17:12.496Z,18.70
2023-05-10T14:19:40.500Z,18.70
2023-05-10T14:22:07.766Z,18.70
2023-05-10T14:24:34.688Z,18.60
2023-05-10T14:27:01.765Z,18.50
2023-05-10T14:29:28.891Z,18.50
2023-05-10T14:31:56.057Z,18.70
2023-05-10T14:34:23.405Z,18.70
2023-05-10T14:36:50.881Z,18.60
2023-05-10T14:39:17.893Z,18.50
2023-05-10T14:41:45.739Z,18.40
2023-05-10T14:44:12.885Z,18.60
2023-05-10T14:46:40.594Z,18.70
2023-05-10T14:49:07.592Z,18.70
2023-05-10T14:51:35.046Z,18.80
2023-05-10T14:54:02.049Z,19.00
2023-05-10T14:56:29.154Z,19.20
2023-05-10T14:58:56.704Z,19.20
2023-05-10T15:01:24.492Z,19.30
2023-05-10T15:03:51.860Z,19.50
2023-05-10T15:06:26.085Z,19.30
2023-05-10T15:08:53.092Z,19.30
2023-05-10T15:11:20.088Z,19.30
2023-05-10T15:13:47.015Z,19.40
2023-05-10T15:16:13.998Z,19.40
2023-05-10T15:18:41.060Z,19.30
2023-05-10T15:21:08.010Z,19.20
2023-05-10T15:23:35.013Z,19.30
2023-05-10T15:26:02.141Z,19.20
2023-05-10T15:28:29.330Z,19.00
2023-05-10T15:30:57.249Z,19.10
2023-05-10T15:33:24.354Z,19.20
2023-05-10T15:35:51.471Z,19.30
2023-05-10T15:38:18.834Z,19.20
2023-05-10T15:40:46.063Z,19.30
2023-05-10T15:43:13.119Z,18.80
2023-05-10T15:45:40.075Z,18.70
2023-05-10T15:48:07.576Z,18.60
2023-05-10T15:50:34.928Z,18.50
2023-05-10T15:53:02.051Z,18.40
2023-05-10T15:55:29.162Z,18.50
2023-05-10T15:57:56.164Z,18.60
2023-05-10T16:00:23.145Z,18.70
2023-05-10T16:02:53.385Z,18.60
2023-05-10T16:05:20.755Z,18.60
2023-05-10T16:07:48.018Z,18.40
2023-05-10T16:10:15.037Z,18.40
2023-05-10T16:12:42.103Z,18.50
2023-05-10T16:15:09.522Z,18.50
2023-05-10T16:17:37.464Z,18.30
2023-05-10T16:20:06.158Z,18.00
2023-05-10T16:22:33.404Z,17.80
2023-05-10T16:25:00.646Z,17.40
2023-05-10T16:27:30.354Z,17.10
2023-05-10T16:29:57.678Z,16.80
2023-05-10T16:32:25.117Z,16.50
2023-05-10T16:34:53.482Z,16.40
2023-05-10T16:37:20.994Z,16.30
2023-05-10T16:39:48.156Z,16.20
2023-05-10T16:42:15.139Z,16.00
2023-05-10T16:44:42.781Z,15.80
2023-05-10T16:47:09.842Z,15.80
2023-05-10T16:49:37.417Z,15.80
2023-05-10T16:52:04.436Z,15.90
2023-05-10T16:54:31.416Z,16.00
2023-05-10T16:56:58.401Z,16.10
2023-05-10T16:59:25.384Z,16.20
2023-05-10T17:01:53.441Z,16.20
2023-05-10T17:04:20.840Z,16.30
2023-05-10T17:06:48.233Z,16.30
2023-05-10T17:09:15.882Z,16.30
2023-05-10T17:11:42.898Z,16.20
2023-05-10T17:14:10.345Z,16.10
2023-05-10T17:16:37.377Z,16.00
2023-05-10T17:19:04.548Z,16.10
2023-05-10T17:21:32.097Z,16.00
2023-05-10T17:23:59.053Z,15.90
2023-05-10T17:26:27.504Z,15.90
2023-05-10T17:28:55.158Z,15.80
2023-05-10T17:31:22.176Z,15.70
2023-05-10T17:33:49.225Z,15.60
2023-05-10T17:36:16.351Z,15.50
2023-05-10T17:38:43.540Z,15.50
2023-05-10T17:41:10.590Z,15.50
2023-05-10T17:43:37.551Z,15.40
2023-05-10T17:46:04.700Z,15.40
2023-05-10T17:48:31.730Z,15.30
2023-05-10T17:50:58.787Z,15.30
2023-05-10T17:53:26.052Z,15.30
2023-05-10T17:55:53.832Z,15.30
2023-05-10T17:58:20.828Z,15.20
2023-05-10T18:00:47.874Z,15.20
2023-05-10T18:03:14.987Z,15.20
2023-05-10T18:05:42.891Z,15.20
2023-05-10T18:08:10.218Z,15.20
2023-05-10T18:10:40.013Z,15.00
2023-05-10T18:13:08.939Z,15.00
2023-05-10T18:15:36.138Z,14.90
2023-05-10T18:18:04.321Z,14.90
2023-05-10T18:20:32.132Z,15.00
2023-05-10T18:22:59.193Z,14.90
2023-05-10T18:25:26.241Z,15.00
2023-05-10T18:27:53.227Z,15.00
2023-05-10T18:30:20.239Z,15.00
2023-05-10T18:32:47.747Z,14.90
2023-05-10T18:35:14.832Z,15.00
2023-05-10T18:37:42.549Z,14.90
2023-05-10T18:40:11.184Z,14.90
2023-05-10T18:42:38.196Z,14.70
2023-05-10T18:45:06.448Z,14.70
2023-05-10T18:47:33.482Z,14.70
2023-05-10T18:50:00.646Z,14.70
2023-05-10T18:52:27.850Z,14.70
2023-05-10T18:54:55.216Z,14.70
2023-05-10T18:57:22.587Z,14.60
2023-05-10T18:59:50.096Z,14.50
2023-05-10T19:02:17.446Z,14.40
2023-05-10T19:04:44.568Z,14.30
2023-05-10T19:07:11.893Z,14.20
2023-05-10T19:09:38.969Z,14.00
2023-05-10T19:12:06.070Z,13.90
2023-05-10T19:14:33.193Z,13.70
2023-05-10T19:17:01.518Z,13.80
2023-05-10T19:19:28.623Z,13.80
2023-05-10T19:21:56.269Z,13.70
2023-05-10T19:24:25.591Z,13.70
2023-05-10T19:26:53.151Z,13.60
2023-05-10T19:29:20.382Z,13.70
2023-05-10T19:31:48.882Z,13.60
2023-05-10T19:34:16.481Z,13.50
2023-05-10T19:36:43.626Z,13.40
2023-05-10T19:39:11.284Z,13.40
2023-05-10T19:41:38.651Z,13.40
2023-05-10T19:44:05.751Z,13.40
2023-05-10T19:46:32.875Z,13.40
2023-05-10T19:49:00.235Z,13.40
2023-05-10T19:51:27.351Z,13.30
2023-05-10T19:53:54.454Z,13.40
2023-05-10T19:56:21.785Z,13.40
2023-05-10T19:58:49.012Z,13.40
2023-05-10T20:01:16.209Z,13.30
2023-05-10T20:03:43.490Z,13.20
2023-05-10T20:06:10.714Z,13.30
2023-05-10T20:08:37.837Z,13.30
2023-05-10T20:11:05.116Z,13.20
2023-05-10T20:13:32.523Z,13.20
2023-05-10T20:16:00.080Z,13.20
2023-05-10T20:18:27.386Z,13.10
2023-05-10T20:20:55.607Z,13.10
2023-05-10T20:23:23.154Z,13.10
2023-05-10T20:25:50.365Z,13.10
2023-05-10T20:28:25.304Z,13.00
2023-05-10T20:30:54.312Z,13.10
2023-05-10T20:33:22.829Z,13.00
2023-05-10T20:35:51.415Z,12.90
2023-05-10T20:38:18.770Z,12.80
2023-05-10T20:40:46.609Z,12.70
2023-05-10T20:43:13.732Z,12.70
2023-05-10T20:45:40.859Z,12.70
2023-05-10T20:48:08.280Z,12.80
2023-05-10T20:50:35.649Z,12.80
2023-05-10T20:53:02.699Z,12.70
2023-05-10T20:55:29.806Z,12.80
2023-05-10T20:57:57.156Z,12.80
2023-05-10T21:00:24.362Z,12.80
2023-05-10T21:02:54.684Z,12.70
2023-05-10T21:05:22.397Z,12.60
2023-05-10T21:07:49.638Z,12.60
2023-05-10T21:10:17.131Z,12.70
2023-05-10T21:12:44.429Z,12.60
2023-05-10T21:15:11.913Z,12.50
2023-05-10T21:17:39.175Z,12.60
2023-05-10T21:20:07.165Z,12.60
2023-05-10T21:22:34.322Z,12.60
2023-05-10T21:25:01.453Z,12.60
2023-05-10T21:27:28.619Z,12.50
2023-05-10T21:29:55.698Z,12.50
2023-05-10T21:32:23.140Z,12.40
2023-05-10T21:34:50.345Z,12.40
2023-05-10T21:37:17.794Z,12.40
2023-05-10T21:39:44.942Z,12.40
2023-05-10T21:42:12.072Z,12.40
2023-05-10T21:44:39.317Z,12.40
2023-05-10T21:47:06.490Z,12.30
2023-05-10T21:49:33.687Z,12.30
2023-05-10T21:52:01.587Z,12.30
2023-05-10T21:54:28.770Z,12.20
2023-05-10T21:56:55.911Z,12.20
2023-05-10T21:59:23.384Z,12.20
2023-05-10T22:01:50.948Z,12.30
2023-05-10T22:04:18.159Z,12.20
2023-05-10T22:06:45.346Z,12.30
2023-05-10T22:09:12.386Z,12.40
2023-05-10T22:11:39.509Z,12.30
2023-05-10T22:14:06.711Z,12.30
2023-05-10T22:16:33.752Z,12.30
2023-05-10T22:19:01.245Z,12.30
2023-05-10T22:21:28.288Z,12.30
2023-05-10T22:23:55.352Z,12.30
2023-05-10T22:26:22.714Z,12.30
2023-05-10T22:28:50.005Z,12.20
2023-05-10T22:31:17.067Z,12.20
2023-05-10T22:33:44.423Z,12.20
2023-05-10T22:36:11.909Z,12.20
2023-05-10T22:38:38.921Z,12.20
2023-05-10T22:41:06.041Z,12.00
2023-05-10T22:43:33.485Z,11.90
2023-05-10T22:46:00.674Z,11.90
2023-05-10T22:48:28.999Z,11.90
2023-05-10T22:50:56.317Z,11.90
2023-05-10T22:53:23.443Z,11.90
2023-05-10T22:55:51.424Z,11.90
2023-05-10T22:58:18.767Z,12.00
2023-05-10T23:00:45.838Z,11.90
2023-05-10T23:03:12.980Z,11.90
2023-05-10T23:05:40.267Z,12.00
2023-05-10T23:08:07.443Z,11.90
2023-05-10T23:10:34.461Z,12.00
2023-05-10T23:13:01.678Z,11.90
2023-05-10T23:15:29.853Z,11.80
2023-05-10T23:17:57.089Z,11.80
2023-05-10T23:20:24.241Z,11.70
2023-05-10T23:22:51.321Z,11.70
2023-05-10T23:25:18.510Z,11.70
2023-05-10T23:27:45.698Z,11.70
2023-05-10T23:30:12.954Z,11.60
2023-05-10T23:32:40.210Z,11.70
2023-05-10T23:35:08.204Z,11.70
2023-05-10T23:37:36.183Z,11.60
2023-05-10T23:40:03.464Z,11.60
2023-05-10T23:42:32.205Z,11.60
2023-05-10T23:44:59.507Z,11.60
2023-05-10T23:47:26.980Z,11.60
2023-05-10T23:49:54.032Z,11.60
2023-05-10T23:52:25.247Z,11.70
2023-05-10T23:54:53.008Z,11.60
2023-05-10T23:57:21.099Z,11.60
2023-05-10T23:59:48.167Z,11.60
